Time;durP1;ratioP1;P1;durP2;ratioP2;P2;SDS_P1;SDS_P2;PMS_P1;PMS_P2;Temp;Humidity;BMP_temperature;BMP_pressure;BME280_temperature;BME280_humidity;BME280_pressure;Samples;Min_cycle;Max_cycle;Signal;HPM_P1;HPM_P2
2022/11/18 00:00:32;;;;;;;;;;;18.40;47.90;;;;;;8331427;28;20435;-45
2022/11/18 00:04:33;;;;;;;;;;;18.30;47.80;;;;;;8331796;28;19943;-45
2022/11/18 00:08:33;;;;;;;;;;;18.30;47.90;;;;;;8331204;28;19975;-46
2022/11/18 00:16:54;;;;;;;;;;;18.30;47.90;;;;;;8333966;28;19935;-44
2022/11/18 00:20:55;;;;;;;;;;;18.30;47.90;;;;;;8331331;28;19924;-45
2022/11/18 00:24:55;;;;;;;;;;;18.30;47.90;;;;;;8330438;28;19921;-46
2022/11/18 00:28:55;;;;;;;;;;;18.40;48.00;;;;;;8330886;28;19967;-45
2022/11/18 00:32:56;;;;;;;;;;;18.40;48.00;;;;;;8330438;28;19983;-45
2022/11/18 00:36:56;;;;;;;;;;;18.40;48.00;;;;;;8330128;28;19925;-44
2022/11/18 00:41:17;;;;;;;;;;;18.40;48.00;;;;;;8330776;28;20007;-44
2022/11/18 00:45:18;;;;;;;;;;;18.40;48.00;;;;;;8330219;28;19925;-45
2022/11/18 00:49:19;;;;;;;;;;;18.30;48.00;;;;;;8330083;28;20282;-45
2022/11/18 00:53:20;;;;;;;;;;;18.30;48.00;;;;;;8330312;28;19932;-45
2022/11/18 00:57:21;;;;;;;;;;;18.30;48.00;;;;;;8329779;28;19940;-45
2022/11/18 01:01:21;;;;;;;;;;;18.30;48.10;;;;;;8330332;28;19913;-45
2022/11/18 01:05:22;;;;;;;;;;;18.30;48.00;;;;;;8330405;28;19967;-45
2022/11/18 01:09:22;;;;;;;;;;;18.30;48.10;;;;;;8329494;28;19921;-45
2022/11/18 01:13:24;;;;;;;;;;;18.30;48.20;;;;;;8329853;28;19925;-45
2022/11/18 01:17:25;;;;;;;;;;;18.30;48.00;;;;;;8329871;28;19914;-45
2022/11/18 01:21:27;;;;;;;;;;;18.30;48.10;;;;;;8329328;28;19917;-45
2022/11/18 01:25:27;;;;;;;;;;;18.30;48.10;;;;;;8330127;28;19921;-44
2022/11/18 01:29:28;;;;;;;;;;;18.30;48.10;;;;;;8329635;28;19956;-44
2022/11/18 01:33:28;;;;;;;;;;;18.30;48.10;;;;;;8328988;28;20286;-45
2022/11/18 01:37:29;;;;;;;;;;;18.30;48.10;;;;;;8329584;28;19917;-45
2022/11/18 01:41:29;;;;;;;;;;;18.30;48.00;;;;;;8329599;28;20253;-44
2022/11/18 01:45:37;;;;;;;;;;;18.30;48.20;;;;;;8331489;28;20362;-44
2022/11/18 01:49:38;;;;;;;;;;;18.30;48.10;;;;;;8336047;28;19917;-45
2022/11/18 01:53:44;;;;;;;;;;;18.30;48.20;;;;;;8335632;28;19943;-45
2022/11/18 01:57:46;;;;;;;;;;;18.30;48.20;;;;;;8335077;28;20023;-46
2022/11/18 02:01:47;;;;;;;;;;;18.30;48.20;;;;;;8335429;28;19996;-45
2022/11/18 02:05:48;;;;;;;;;;;18.30;48.10;;;;;;8335429;28;19924;-44
2022/11/18 02:09:51;;;;;;;;;;;18.30;48.10;;;;;;8333207;28;20366;-44
2022/11/18 02:13:52;;;;;;;;;;;18.30;48.10;;;;;;8335099;28;20019;-44
2022/11/18 02:18:11;;;;;;;;;;;18.30;48.00;;;;;;8334838;28;19925;-45
2022/11/18 02:22:17;;;;;;;;;;;18.30;48.20;;;;;;8334325;28;20323;-45
2022/11/18 02:26:18;;;;;;;;;;;18.30;48.10;;;;;;8334895;28;19921;-45
2022/11/18 02:30:18;;;;;;;;;;;18.30;48.20;;;;;;8333999;28;20362;-43
2022/11/18 02:34:24;;;;;;;;;;;18.30;48.10;;;;;;8334291;28;20363;-46
2022/11/18 02:38:30;;;;;;;;;;;18.30;48.20;;;;;;8334482;28;20374;-45
2022/11/18 02:42:32;;;;;;;;;;;18.20;48.30;;;;;;8333650;28;19924;-45
2022/11/18 02:46:33;;;;;;;;;;;18.20;48.10;;;;;;8334114;28;19942;-45
2022/11/18 02:50:34;;;;;;;;;;;18.30;48.10;;;;;;8333947;28;19940;-45
2022/11/18 02:54:36;;;;;;;;;;;18.20;48.10;;;;;;8333402;28;19932;-45
2022/11/18 02:58:37;;;;;;;;;;;18.20;48.10;;;;;;8333782;28;19924;-45
2022/11/18 03:02:41;;;;;;;;;;;18.20;48.10;;;;;;8333723;28;20366;-46
2022/11/18 03:06:46;;;;;;;;;;;18.30;48.10;;;;;;8333146;28;19921;-45
2022/11/18 03:10:51;;;;;;;;;;;18.20;48.00;;;;;;8333468;28;20389;-45
2022/11/18 03:15:01;;;;;;;;;;;18.30;48.00;;;;;;8333231;28;19925;-45
2022/11/18 03:19:17;;;;;;;;;;;18.20;48.20;;;;;;8332460;28;19925;-45
2022/11/18 03:23:21;;;;;;;;;;;18.20;48.10;;;;;;8333271;28;19948;-45
2022/11/18 03:27:28;;;;;;;;;;;18.20;48.20;;;;;;8332451;28;19917;-45
2022/11/18 03:31:34;;;;;;;;;;;18.20;48.20;;;;;;8333039;28;19913;-45
2022/11/18 03:35:36;;;;;;;;;;;18.20;48.20;;;;;;8332796;28;19928;-46
2022/11/18 03:39:39;;;;;;;;;;;18.20;48.20;;;;;;8331959;28;19920;-49
2022/11/18 03:43:43;;;;;;;;;;;18.20;48.10;;;;;;8332326;28;19980;-44
2022/11/18 03:47:47;;;;;;;;;;;18.20;48.30;;;;;;8331908;28;19914;-45
2022/11/18 03:51:50;;;;;;;;;;;18.20;48.10;;;;;;8331823;28;19957;-45
2022/11/18 03:55:53;;;;;;;;;;;18.20;48.00;;;;;;8331924;28;19918;-46
2022/11/18 03:59:58;;;;;;;;;;;18.20;48.10;;;;;;8331942;28;19920;-45
2022/11/18 04:03:59;;;;;;;;;;;18.20;48.10;;;;;;8331288;28;19924;-46
2022/11/18 04:08:01;;;;;;;;;;;18.20;48.20;;;;;;8330926;28;20394;-45
2022/11/18 04:12:03;;;;;;;;;;;18.20;48.20;;;;;;8331662;28;19928;-46
2022/11/18 04:16:06;;;;;;;;;;;18.20;48.00;;;;;;8330824;28;19917;-46
2022/11/18 04:20:11;;;;;;;;;;;18.20;48.10;;;;;;8331289;28;19917;-46
2022/11/18 04:24:12;;;;;;;;;;;18.20;48.50;;;;;;8331157;28;19917;-46
2022/11/18 04:28:12;;;;;;;;;;;18.20;48.00;;;;;;8330541;28;19979;-45
2022/11/18 04:32:12;;;;;;;;;;;18.20;47.90;;;;;;8331226;28;19925;-45
2022/11/18 04:36:13;;;;;;;;;;;18.20;47.90;;;;;;8330749;28;19918;-46
2022/11/18 04:40:13;;;;;;;;;;;18.30;48.00;;;;;;8330412;28;20004;-46
2022/11/18 04:44:14;;;;;;;;;;;18.30;48.00;;;;;;8330582;28;19924;-45
2022/11/18 04:48:15;;;;;;;;;;;18.30;48.10;;;;;;8330465;28;19923;-46
2022/11/18 04:52:15;;;;;;;;;;;18.30;48.00;;;;;;8330156;28;19921;-45
2022/11/18 04:56:16;;;;;;;;;;;18.30;48.00;;;;;;8330259;28;19948;-46
2022/11/18 05:00:16;;;;;;;;;;;18.30;48.00;;;;;;8330312;28;19917;-45
2022/11/18 05:04:18;;;;;;;;;;;18.30;47.90;;;;;;8329700;28;19921;-45
2022/11/18 05:08:18;;;;;;;;;;;18.30;48.10;;;;;;8329482;28;20378;-46
2022/11/18 05:16:38;;;;;;;;;;;18.30;48.00;;;;;;8333521;28;19929;-46
2022/11/18 05:20:38;;;;;;;;;;;18.30;47.90;;;;;;8332380;28;20369;-46
2022/11/18 05:24:39;;;;;;;;;;;18.40;47.90;;;;;;8336274;28;19924;-45
2022/11/18 05:28:39;;;;;;;;;;;18.40;47.90;;;;;;8336457;28;19937;-48
2022/11/18 05:32:40;;;;;;;;;;;18.30;47.90;;;;;;8336748;28;19953;-48
2022/11/18 05:36:40;;;;;;;;;;;18.30;47.90;;;;;;8335833;28;19917;-45
2022/11/18 05:40:41;;;;;;;;;;;18.30;47.90;;;;;;8336054;28;20083;-45
2022/11/18 05:44:41;;;;;;;;;;;18.30;47.90;;;;;;8336087;28;19917;-46
2022/11/18 05:48:42;;;;;;;;;;;18.30;47.90;;;;;;8335549;28;19917;-45
2022/11/18 05:52:42;;;;;;;;;;;18.30;47.90;;;;;;8335813;28;19922;-46
2022/11/18 05:56:44;;;;;;;;;;;18.30;47.90;;;;;;8336121;28;19917;-46
2022/11/18 06:00:46;;;;;;;;;;;18.30;47.90;;;;;;8335046;28;19923;-48
2022/11/18 06:04:49;;;;;;;;;;;18.30;47.90;;;;;;8335761;28;19917;-48
2022/11/18 06:08:56;;;;;;;;;;;18.30;47.90;;;;;;8335187;28;19971;-47
2022/11/18 06:12:58;;;;;;;;;;;18.30;47.90;;;;;;8334945;28;19960;-45
2022/11/18 06:17:01;;;;;;;;;;;18.20;47.90;;;;;;8334953;28;19917;-46
2022/11/18 06:21:03;;;;;;;;;;;18.30;47.90;;;;;;8334906;28;19940;-46
2022/11/18 06:25:03;;;;;;;;;;;18.20;47.90;;;;;;8334282;28;19924;-47
2022/11/18 06:29:05;;;;;;;;;;;18.20;47.80;;;;;;8334975;28;19917;-46
2022/11/18 06:33:06;;;;;;;;;;;18.20;47.80;;;;;;8334195;28;20400;-46
2022/11/18 06:37:16;;;;;;;;;;;18.20;47.80;;;;;;8334113;28;19917;-45
2022/11/18 06:41:17;;;;;;;;;;;18.20;47.90;;;;;;8334258;28;19918;-45
2022/11/18 06:45:17;;;;;;;;;;;18.20;47.80;;;;;;8334138;28;20052;-45
2022/11/18 06:49:18;;;;;;;;;;;18.20;47.80;;;;;;8333800;28;20283;-48
2022/11/18 06:53:18;;;;;;;;;;;18.20;47.90;;;;;;8334230;28;19921;-45
2022/11/18 06:57:19;;;;;;;;;;;18.20;48.00;;;;;;8333369;28;20396;-44
2022/11/18 07:01:21;;;;;;;;;;;18.10;47.90;;;;;;8333472;28;19917;-46
2022/11/18 07:05:21;;;;;;;;;;;18.10;47.80;;;;;;8333269;28;20290;-46
2022/11/18 07:09:21;;;;;;;;;;;18.10;48.20;;;;;;8332857;28;19939;-45
2022/11/18 07:13:22;;;;;;;;;;;18.10;47.90;;;;;;8333493;28;19928;-46
2022/11/18 07:17:22;;;;;;;;;;;18.10;47.90;;;;;;8333324;28;19971;-46
2022/11/18 07:21:24;;;;;;;;;;;18.10;47.90;;;;;;8332630;28;19921;-46
2022/11/18 07:25:25;;;;;;;;;;;18.10;48.00;;;;;;8333300;28;19939;-46
2022/11/18 07:29:25;;;;;;;;;;;18.10;47.90;;;;;;8332717;28;19917;-45
2022/11/18 07:33:26;;;;;;;;;;;18.10;47.90;;;;;;8332436;28;19921;-46
2022/11/18 07:37:26;;;;;;;;;;;18.10;47.90;;;;;;8332824;28;19917;-46
2022/11/18 07:41:28;;;;;;;;;;;18.10;47.90;;;;;;8332412;28;19917;-45
2022/11/18 07:45:28;;;;;;;;;;;18.10;47.90;;;;;;8331050;28;20338;-46
2022/11/18 07:49:29;;;;;;;;;;;18.10;47.90;;;;;;8332181;28;19924;-45
2022/11/18 07:53:30;;;;;;;;;;;18.10;47.80;;;;;;8332006;28;20021;-46
2022/11/18 07:57:31;;;;;;;;;;;18.10;47.90;;;;;;8331261;28;19986;-45
2022/11/18 08:01:31;;;;;;;;;;;18.10;48.00;;;;;;8331955;28;19917;-46
2022/11/18 08:05:32;;;;;;;;;;;18.10;47.80;;;;;;8331446;28;19971;-45
2022/11/18 08:09:32;;;;;;;;;;;18.10;47.90;;;;;;8330916;28;19921;-45
2022/11/18 08:13:33;;;;;;;;;;;18.10;48.00;;;;;;8303279;28;19929;-46
2022/11/18 08:17:33;;;;;;;;;;;18.10;48.00;;;;;;8327127;28;19959;-46
2022/11/18 08:21:34;;;;;;;;;;;18.10;47.90;;;;;;8330667;28;19917;-45
2022/11/18 08:25:34;;;;;;;;;;;18.10;47.90;;;;;;8330959;28;20470;-46
2022/11/18 08:29:35;;;;;;;;;;;18.10;47.90;;;;;;8330792;28;19957;-47
2022/11/18 08:33:35;;;;;;;;;;;18.00;47.80;;;;;;8330742;28;19922;-45
2022/11/18 08:37:36;;;;;;;;;;;18.10;47.90;;;;;;8331176;28;19925;-45
2022/11/18 08:41:37;;;;;;;;;;;18.10;47.90;;;;;;8330605;28;19917;-46
2022/11/18 08:45:38;;;;;;;;;;;18.10;47.90;;;;;;8329873;28;20386;-46
2022/11/18 08:49:39;;;;;;;;;;;18.10;47.90;;;;;;8345165;28;20010;-45
2022/11/18 08:53:39;;;;;;;;;;;18.10;47.90;;;;;;8330321;28;20381;-45
2022/11/18 08:57:39;;;;;;;;;;;18.10;47.90;;;;;;8329886;28;19940;-45
2022/11/18 09:01:42;;;;;;;;;;;18.10;47.90;;;;;;8330603;28;20433;-45
2022/11/18 09:05:43;;;;;;;;;;;18.20;48.00;;;;;;8330334;28;20250;-45
2022/11/18 09:09:43;;;;;;;;;;;18.20;48.00;;;;;;8329598;28;19921;-45
2022/11/18 09:13:44;;;;;;;;;;;18.20;47.90;;;;;;8330279;28;19972;-46
2022/11/18 09:17:44;;;;;;;;;;;18.20;48.00;;;;;;8330008;28;19924;-45
2022/11/18 09:21:45;;;;;;;;;;;18.20;47.90;;;;;;8329439;28;20366;-45
2022/11/18 09:25:45;;;;;;;;;;;18.20;47.90;;;;;;8329861;28;19914;-45
2022/11/18 09:29:45;;;;;;;;;;;18.20;47.90;;;;;;8329857;28;19979;-46
2022/11/18 09:33:46;;;;;;;;;;;18.30;47.90;;;;;;8329592;28;19948;-45
2022/11/18 09:37:46;;;;;;;;;;;18.20;47.90;;;;;;8329714;28;20394;-45
2022/11/18 09:41:52;;;;;;;;;;;18.30;47.90;;;;;;8329667;28;19975;-46
2022/11/18 09:45:57;;;;;;;;;;;18.20;47.90;;;;;;8329344;28;19917;-46
2022/11/18 09:50:03;;;;;;;;;;;18.30;47.90;;;;;;8330066;28;19940;-46
2022/11/18 09:54:03;;;;;;;;;;;18.30;47.90;;;;;;8329804;28;20400;-46
2022/11/18 09:58:04;;;;;;;;;;;18.30;47.80;;;;;;8329026;28;19917;-45
2022/11/18 10:02:25;;;;;;;;;;;18.30;47.70;;;;;;8329298;28;19971;-45
2022/11/18 10:06:31;;;;;;;;;;;18.30;47.70;;;;;;8320061;28;20000;-45
2022/11/18 10:10:39;;;;;;;;;;;18.30;47.70;;;;;;8335737;28;20007;-45
2022/11/18 10:14:58;;;;;;;;;;;18.30;47.80;;;;;;8335413;28;20306;-46
2022/11/18 10:19:17;;;;;;;;;;;18.30;47.70;;;;;;8334816;28;19995;-46
2022/11/18 10:23:17;;;;;;;;;;;18.30;47.70;;;;;;8334950;28;20294;-45
2022/11/18 10:27:18;;;;;;;;;;;18.30;47.70;;;;;;8334641;28;19921;-45
2022/11/18 10:31:18;;;;;;;;;;;18.30;47.70;;;;;;8310082;28;19925;-45
2022/11/18 10:35:22;;;;;;;;;;;18.20;47.60;;;;;;8334457;28;19928;-46
2022/11/18 10:39:23;;;;;;;;;;;18.20;47.70;;;;;;8334251;28;19917;-46
2022/11/18 10:44:02;;;;;;;;;;;18.20;47.60;;;;;;8334496;28;19921;-45
2022/11/18 10:48:02;;;;;;;;;;;18.20;47.60;;;;;;8233325;28;20405;-45
2022/11/18 10:52:07;;;;;;;;;;;18.20;47.60;;;;;;8264095;28;19932;-47
2022/11/18 10:56:10;;;;;;;;;;;18.20;47.70;;;;;;8309302;28;19917;-45
2022/11/18 11:00:29;;;;;;;;;;;18.20;47.60;;;;;;8333850;28;20012;-45
2022/11/18 11:04:30;;;;;;;;;;;18.20;47.70;;;;;;8333465;28;20011;-45
2022/11/18 11:08:30;;;;;;;;;;;18.20;47.70;;;;;;8333353;28;20366;-45
2022/11/18 11:12:35;;;;;;;;;;;18.20;47.60;;;;;;8319939;28;20281;-45
2022/11/18 11:16:54;;;;;;;;;;;18.20;47.70;;;;;;8333601;28;20072;-45
2022/11/18 11:20:55;;;;;;;;;;;18.20;47.70;;;;;;8333571;28;20373;-45
2022/11/18 11:24:55;;;;;;;;;;;18.20;47.70;;;;;;8332863;28;19969;-46
2022/11/18 11:29:11;;;;;;;;;;;18.10;47.70;;;;;;8332992;28;19924;-46
2022/11/18 11:33:18;;;;;;;;;;;18.20;47.80;;;;;;8332607;28;19932;-46
2022/11/18 11:37:38;;;;;;;;;;;18.20;47.80;;;;;;8332365;28;20365;-45
2022/11/18 11:41:45;;;;;;;;;;;18.20;47.80;;;;;;8332450;28;19962;-47
2022/11/18 11:45:56;;;;;;;;;;;18.20;47.80;;;;;;8331938;28;19963;-45
2022/11/18 11:50:03;;;;;;;;;;;18.20;47.80;;;;;;8332469;28;19920;-46
2022/11/18 11:54:07;;;;;;;;;;;18.20;47.80;;;;;;8332097;28;20060;-45
2022/11/18 11:58:07;;;;;;;;;;;18.20;47.70;;;;;;8331347;28;19921;-45
2022/11/18 12:02:08;;;;;;;;;;;18.10;47.70;;;;;;8331835;28;19925;-46
2022/11/18 12:06:09;;;;;;;;;;;18.20;47.80;;;;;;8331602;28;19921;-45
2022/11/18 12:10:21;;;;;;;;;;;18.20;47.80;;;;;;8331301;28;19921;-46
2022/11/18 12:14:34;;;;;;;;;;;18.20;47.80;;;;;;8331414;28;19925;-46
2022/11/18 12:18:35;;;;;;;;;;;18.20;48.30;;;;;;8331001;28;19968;-47
2022/11/18 12:22:54;;;;;;;;;;;18.10;47.70;;;;;;8331101;28;20286;-46
2022/11/18 12:27:00;;;;;;;;;;;18.20;47.80;;;;;;8330504;28;21372;-45
2022/11/18 12:31:16;;;;;;;;;;;18.10;47.70;;;;;;8330244;28;20321;-47
2022/11/18 12:35:16;;;;;;;;;;;18.20;47.70;;;;;;8330940;28;19991;-46
2022/11/18 12:39:23;;;;;;;;;;;18.20;47.80;;;;;;8330785;28;20008;-45
2022/11/18 12:43:48;;;;;;;;;;;18.20;47.80;;;;;;8330800;28;19917;-45
2022/11/18 12:47:51;;;;;;;;;;;18.20;47.70;;;;;;8330700;28;19927;-45
2022/11/18 12:51:53;;;;;;;;;;;18.20;47.70;;;;;;8329908;28;20339;-45
2022/11/18 12:55:54;;;;;;;;;;;18.20;47.70;;;;;;8330880;28;20342;-45
2022/11/18 12:59:55;;;;;;;;;;;18.20;47.70;;;;;;8330179;28;20325;-46
2022/11/18 13:04:11;;;;;;;;;;;18.10;47.70;;;;;;8329867;28;19918;-45
2022/11/18 13:08:12;;;;;;;;;;;18.20;47.70;;;;;;8330346;28;20270;-46
2022/11/18 13:12:15;;;;;;;;;;;18.10;48.20;;;;;;8328587;28;19918;-45
2022/11/18 13:20:42;;;;;;;;;;;18.20;47.80;;;;;;8334870;28;19971;-45
2022/11/18 13:24:47;;;;;;;;;;;18.20;47.70;;;;;;8329556;28;19917;-46
2022/11/18 13:28:58;;;;;;;;;;;18.10;47.70;;;;;;8330150;28;20405;-49
2022/11/18 13:32:59;;;;;;;;;;;18.20;47.70;;;;;;8329650;28;19932;-47
2022/11/18 13:36:59;;;;;;;;;;;18.20;47.70;;;;;;8329187;28;20286;-45
2022/11/18 13:41:13;;;;;;;;;;;18.20;47.70;;;;;;8331312;28;20014;-45
2022/11/18 13:45:14;;;;;;;;;;;18.20;47.70;;;;;;8335926;28;19923;-45
2022/11/18 13:49:17;;;;;;;;;;;18.10;47.70;;;;;;8335382;28;19919;-47
2022/11/18 13:53:24;;;;;;;;;;;18.20;47.70;;;;;;8335624;28;20039;-47
2022/11/18 13:57:25;;;;;;;;;;;18.10;47.70;;;;;;8335027;28;20259;-46
2022/11/18 14:01:27;;;;;;;;;;;18.10;47.70;;;;;;8335566;28;19960;-45
2022/11/18 14:05:28;;;;;;;;;;;18.20;47.70;;;;;;8334519;28;19917;-46
2022/11/18 14:09:30;;;;;;;;;;;18.20;47.70;;;;;;8334578;28;19932;-46
2022/11/18 14:13:32;;;;;;;;;;;18.20;47.70;;;;;;8334997;28;20305;-49
2022/11/18 14:17:32;;;;;;;;;;;18.10;47.70;;;;;;8334828;28;19952;-47
2022/11/18 14:21:34;;;;;;;;;;;18.10;47.80;;;;;;8314428;28;20268;-45
2022/11/18 14:25:35;;;;;;;;;;;18.20;47.90;;;;;;8317410;28;20298;-46
2022/11/18 14:29:35;;;;;;;;;;;18.20;47.90;;;;;;8306297;28;19924;-46
2022/11/18 14:33:36;;;;;;;;;;;18.20;47.90;;;;;;8315662;28;19957;-45
2022/11/18 14:37:37;;;;;;;;;;;18.20;47.80;;;;;;8319200;28;19925;-46
2022/11/18 14:41:46;;;;;;;;;;;18.10;47.70;;;;;;8313879;28;19917;-45
2022/11/18 14:45:47;;;;;;;;;;;18.20;47.70;;;;;;8330121;28;20010;-46
2022/11/18 14:49:47;;;;;;;;;;;18.20;47.60;;;;;;8326461;28;20297;-46
2022/11/18 14:53:47;;;;;;;;;;;18.30;47.50;;;;;;8321540;28;19925;-45
2022/11/18 14:57:48;;;;;;;;;;;18.30;47.50;;;;;;8320671;28;19917;-46
2022/11/18 15:01:48;;;;;;;;;;;18.30;47.80;;;;;;8314561;28;19921;-45
2022/11/18 15:05:49;;;;;;;;;;;18.30;47.90;;;;;;8317410;28;19916;-46
2022/11/18 15:09:49;;;;;;;;;;;18.30;47.80;;;;;;8317590;28;19925;-46
2022/11/18 15:13:50;;;;;;;;;;;18.20;47.80;;;;;;8333245;28;20012;-44
2022/11/18 15:17:50;;;;;;;;;;;18.30;47.80;;;;;;8323602;28;19917;-45
2022/11/18 15:21:51;;;;;;;;;;;18.30;47.80;;;;;;8317820;28;19924;-45
2022/11/18 15:25:51;;;;;;;;;;;18.30;47.80;;;;;;8309960;28;19917;-46
2022/11/18 15:29:52;;;;;;;;;;;18.30;47.80;;;;;;8313470;28;19917;-46
2022/11/18 15:33:52;;;;;;;;;;;18.30;47.80;;;;;;8327555;28;19925;-46
2022/11/18 15:37:53;;;;;;;;;;;18.30;47.80;;;;;;8312453;28;19929;-45
2022/11/18 15:41:53;;;;;;;;;;;18.20;47.70;;;;;;8307784;28;20274;-46
2022/11/18 15:45:57;;;;;;;;;;;18.20;47.70;;;;;;8311342;28;19924;-45
2022/11/18 15:49:57;;;;;;;;;;;18.20;48.30;;;;;;8321490;28;19917;-46
2022/11/18 15:53:58;;;;;;;;;;;18.20;47.70;;;;;;8321647;28;20362;-45
2022/11/18 15:57:58;;;;;;;;;;;18.20;47.70;;;;;;8322607;28;19921;-45
2022/11/18 16:01:59;;;;;;;;;;;18.20;47.70;;;;;;8321876;28;19917;-45
2022/11/18 16:05:59;;;;;;;;;;;18.10;47.70;;;;;;8306433;28;19918;-45
2022/11/18 16:14:19;;;;;;;;;;;18.20;47.60;;;;;;8321766;28;19936;-46
2022/11/18 16:18:20;;;;;;;;;;;18.20;47.70;;;;;;8307609;28;19925;-46
2022/11/18 16:22:20;;;;;;;;;;;18.20;47.70;;;;;;8316022;28;20375;-45
2022/11/18 16:26:21;;;;;;;;;;;18.10;47.60;;;;;;8311267;28;19924;-45
2022/11/18 16:34:40;;;;;;;;;;;18.10;47.70;;;;;;8316755;28;20005;-46
2022/11/18 16:38:41;;;;;;;;;;;18.10;47.70;;;;;;8305865;28;19917;-44
2022/11/18 16:42:42;;;;;;;;;;;18.10;47.70;;;;;;8312720;28;19917;-47
2022/11/18 16:46:53;;;;;;;;;;;18.10;47.70;;;;;;8328866;28;20000;-46
2022/11/18 16:51:07;;;;;;;;;;;18.10;47.70;;;;;;8328332;28;19917;-45
2022/11/18 16:55:07;;;;;;;;;;;18.10;47.60;;;;;;8312824;28;20008;-46
2022/11/18 16:59:15;;;;;;;;;;;18.10;47.70;;;;;;8318497;28;20393;-46
2022/11/18 17:03:15;;;;;;;;;;;18.10;47.60;;;;;;8330056;28;19971;-46
2022/11/18 17:07:16;;;;;;;;;;;18.10;47.60;;;;;;8329659;28;19921;-46
2022/11/18 17:11:17;;;;;;;;;;;18.10;47.60;;;;;;8328650;28;19917;-47
2022/11/18 17:15:18;;;;;;;;;;;18.10;47.60;;;;;;8332833;28;19929;-46
2022/11/18 17:19:19;;;;;;;;;;;18.00;47.70;;;;;;8340218;28;19999;-46
2022/11/18 17:23:20;;;;;;;;;;;18.00;47.60;;;;;;8341041;28;19979;-47
2022/11/18 17:27:20;;;;;;;;;;;18.00;47.70;;;;;;8340582;28;20429;-46
2022/11/18 17:31:21;;;;;;;;;;;18.00;47.70;;;;;;8340463;28;19921;-46
2022/11/18 17:35:22;;;;;;;;;;;18.00;47.60;;;;;;8340495;28;19925;-46
2022/11/18 17:39:22;;;;;;;;;;;18.00;47.70;;;;;;8340038;28;20025;-46
2022/11/18 17:43:23;;;;;;;;;;;18.00;47.60;;;;;;8341146;28;19940;-46
2022/11/18 17:47:24;;;;;;;;;;;18.00;47.60;;;;;;8340770;28;19914;-47
2022/11/18 17:51:25;;;;;;;;;;;18.00;47.70;;;;;;8329421;28;20409;-47
2022/11/18 17:55:25;;;;;;;;;;;18.00;47.70;;;;;;8333157;28;19926;-46
2022/11/18 17:59:26;;;;;;;;;;;18.00;47.70;;;;;;8330443;28;19917;-47
2022/11/18 18:03:27;;;;;;;;;;;18.00;47.80;;;;;;8325944;28;20293;-47
2022/11/18 18:07:28;;;;;;;;;;;18.10;47.90;;;;;;8334095;28;19922;-46
2022/11/18 18:11:29;;;;;;;;;;;18.10;47.90;;;;;;8335222;28;19937;-46
2022/11/18 18:15:29;;;;;;;;;;;18.10;47.80;;;;;;8339203;28;20275;-46
2022/11/18 18:19:32;;;;;;;;;;;18.10;47.70;;;;;;8339433;28;19917;-47
2022/11/18 18:23:33;;;;;;;;;;;18.20;47.60;;;;;;8332411;28;19956;-47
2022/11/18 18:27:33;;;;;;;;;;;18.20;47.60;;;;;;8312328;28;19913;-46
2022/11/18 18:31:35;;;;;;;;;;;18.30;47.70;;;;;;8323413;28;20036;-46
2022/11/18 18:35:40;;;;;;;;;;;18.30;47.50;;;;;;8303757;28;20382;-45
2022/11/18 18:39:40;;;;;;;;;;;18.30;47.70;;;;;;8327262;28;20270;-46
2022/11/18 18:43:41;;;;;;;;;;;18.30;47.70;;;;;;8313593;28;19913;-45
2022/11/18 18:47:41;;;;;;;;;;;18.30;47.50;;;;;;8333371;28;19917;-45
2022/11/18 18:51:43;;;;;;;;;;;18.30;47.70;;;;;;8333513;28;19967;-45
2022/11/18 18:55:44;;;;;;;;;;;18.40;47.70;;;;;;8333600;28;19933;-45
2022/11/18 18:59:44;;;;;;;;;;;18.40;47.70;;;;;;8333413;28;20012;-45
2022/11/18 19:03:45;;;;;;;;;;;18.40;47.70;;;;;;8333113;28;19948;-45
2022/11/18 19:07:45;;;;;;;;;;;18.40;47.60;;;;;;8330559;28;19930;-47
2022/11/18 19:16:05;;;;;;;;;;;18.40;47.70;;;;;;8333370;28;20022;-46
2022/11/18 19:24:25;;;;;;;;;;;18.40;47.60;;;;;;8309422;28;19924;-45
2022/11/18 19:28:26;;;;;;;;;;;18.50;47.60;;;;;;8332958;28;19913;-46
2022/11/18 19:32:26;;;;;;;;;;;18.50;47.60;;;;;;8305835;28;19925;-45
2022/11/18 19:36:27;;;;;;;;;;;18.50;47.60;;;;;;8345881;28;19913;-45
2022/11/18 19:40:27;;;;;;;;;;;18.50;47.60;;;;;;8362809;28;19917;-46
2022/11/18 19:44:28;;;;;;;;;;;18.50;47.70;;;;;;8339505;28;19920;-46
2022/11/18 19:48:28;;;;;;;;;;;18.50;47.60;;;;;;8332185;28;19925;-45
2022/11/18 19:52:29;;;;;;;;;;;18.50;47.70;;;;;;8326946;28;19933;-46
2022/11/18 19:56:29;;;;;;;;;;;18.50;47.80;;;;;;8330436;28;20374;-45
2022/11/18 20:00:30;;;;;;;;;;;18.50;47.80;;;;;;8331257;28;20362;-46
2022/11/18 20:04:30;;;;;;;;;;;18.60;47.90;;;;;;8330863;28;19915;-46
2022/11/18 20:08:32;;;;;;;;;;;18.60;47.60;;;;;;8330293;28;19945;-47
2022/11/18 20:12:32;;;;;;;;;;;18.60;47.50;;;;;;8330843;28;19920;-47
2022/11/18 20:16:34;;;;;;;;;;;18.60;47.50;;;;;;8331330;28;19918;-45
2022/11/18 20:20:36;;;;;;;;;;;18.60;47.60;;;;;;8331014;28;19917;-45
2022/11/18 20:24:36;;;;;;;;;;;18.60;47.60;;;;;;8318340;28;20016;-45
2022/11/18 20:28:38;;;;;;;;;;;18.60;47.70;;;;;;8298302;28;19917;-45
2022/11/18 20:32:38;;;;;;;;;;;18.60;47.50;;;;;;8328024;28;19921;-44
2022/11/18 20:36:39;;;;;;;;;;;18.60;47.40;;;;;;8330204;28;19964;-44
2022/11/18 20:40:40;;;;;;;;;;;18.60;47.50;;;;;;8330487;28;19917;-45
2022/11/18 20:44:40;;;;;;;;;;;18.50;47.50;;;;;;8330636;28;19924;-44
2022/11/18 20:48:41;;;;;;;;;;;18.60;47.70;;;;;;8330095;28;19917;-46
2022/11/18 20:52:41;;;;;;;;;;;18.60;47.70;;;;;;8329853;28;19921;-46
2022/11/18 20:56:41;;;;;;;;;;;18.60;47.70;;;;;;8329927;28;20404;-46
2022/11/18 21:00:42;;;;;;;;;;;18.60;48.10;;;;;;8329435;28;19918;-45
2022/11/18 21:04:42;;;;;;;;;;;18.60;47.50;;;;;;8329975;28;19917;-46
2022/11/18 21:08:43;;;;;;;;;;;18.60;47.50;;;;;;8330097;28;19960;-45
2022/11/18 21:17:05;;;;;;;;;;;18.60;47.50;;;;;;8308562;28;20004;-46
2022/11/18 21:25:25;;;;;;;;;;;18.60;47.40;;;;;;8312577;28;20089;-46
2022/11/18 21:29:26;;;;;;;;;;;18.60;47.50;;;;;;8297625;28;20276;-46
2022/11/18 21:33:26;;;;;;;;;;;18.60;47.50;;;;;;8329396;28;19925;-46
2022/11/18 21:37:27;;;;;;;;;;;18.60;47.50;;;;;;8329251;28;20374;-45
2022/11/18 21:41:28;;;;;;;;;;;18.60;47.60;;;;;;8316979;28;19917;-45
2022/11/18 21:45:28;;;;;;;;;;;18.70;47.70;;;;;;8327906;28;19920;-46
2022/11/18 21:49:29;;;;;;;;;;;18.70;47.70;;;;;;8301893;28;19929;-45
2022/11/18 21:53:29;;;;;;;;;;;18.70;47.60;;;;;;8326879;28;19929;-44
2022/11/18 21:57:30;;;;;;;;;;;18.70;47.70;;;;;;8328221;28;19921;-44
2022/11/18 22:01:32;;;;;;;;;;;18.60;47.80;;;;;;8335869;28;19921;-44
2022/11/18 22:05:32;;;;;;;;;;;18.70;47.90;;;;;;8331531;28;19917;-45
2022/11/18 22:09:33;;;;;;;;;;;18.70;47.70;;;;;;8301366;28;20397;-45
2022/11/18 22:13:33;;;;;;;;;;;18.70;47.80;;;;;;8331451;28;19925;-45
2022/11/18 22:17:34;;;;;;;;;;;18.60;47.50;;;;;;8332187;28;19963;-45
2022/11/18 22:21:34;;;;;;;;;;;18.60;47.50;;;;;;8331415;28;20011;-46
2022/11/18 22:25:35;;;;;;;;;;;18.60;47.20;;;;;;8332552;28;19940;-46
2022/11/18 22:29:35;;;;;;;;;;;18.50;47.30;;;;;;8335155;28;19913;-45
2022/11/18 22:33:36;;;;;;;;;;;18.50;47.30;;;;;;8334418;28;19925;-45
2022/11/18 22:37:36;;;;;;;;;;;18.40;47.30;;;;;;8334722;28;19956;-44
2022/11/18 22:45:59;;;;;;;;;;;18.40;47.90;;;;;;8334902;28;19924;-44
2022/11/18 22:49:59;;;;;;;;;;;18.40;47.40;;;;;;8334438;28;19921;-46
2022/11/18 22:54:00;;;;;;;;;;;18.30;47.40;;;;;;8334191;28;19925;-45
2022/11/18 22:58:01;;;;;;;;;;;18.30;47.40;;;;;;8333717;28;19924;-45
2022/11/18 23:02:01;;;;;;;;;;;18.30;47.40;;;;;;8332833;28;20382;-46
2022/11/18 23:06:02;;;;;;;;;;;18.30;47.40;;;;;;8333252;28;20024;-45
2022/11/18 23:10:03;;;;;;;;;;;18.30;47.40;;;;;;8333196;28;19921;-45
2022/11/18 23:14:04;;;;;;;;;;;18.30;47.30;;;;;;8333195;28;19948;-45
2022/11/18 23:18:05;;;;;;;;;;;18.30;47.50;;;;;;8333340;28;19960;-44
2022/11/18 23:22:05;;;;;;;;;;;18.20;47.40;;;;;;8332666;28;19917;-45
2022/11/18 23:26:13;;;;;;;;;;;18.20;47.30;;;;;;8332904;28;19917;-45
2022/11/18 23:30:13;;;;;;;;;;;18.20;47.30;;;;;;8332995;28;19919;-44
2022/11/18 23:34:14;;;;;;;;;;;18.20;47.40;;;;;;8332445;28;20283;-48
2022/11/18 23:38:15;;;;;;;;;;;18.20;47.40;;;;;;8332935;28;19917;-45
2022/11/18 23:42:15;;;;;;;;;;;18.20;47.50;;;;;;8332465;28;19921;-49
2022/11/18 23:46:16;;;;;;;;;;;18.30;47.50;;;;;;8331999;28;19917;-44
2022/11/18 23:50:17;;;;;;;;;;;18.20;47.50;;;;;;8332438;28;19975;-44
2022/11/18 23:54:17;;;;;;;;;;;18.20;47.50;;;;;;8332193;28;20295;-45
2022/11/18 23:58:18;;;;;;;;;;;18.20;47.50;;;;;;8331479;28;19921;-45
